sensor_id;sensor_type;location;lat;lon;timestamp;pressure;altitude;pressure_sealevel;temperature;humidity
20424;BME280;10371;49.042;8.002;2022-10-16T00:00:31;99630.63;;;16.16;100.00
20424;BME280;10371;49.042;8.002;2022-10-16T00:01:32;99628.00;;;16.16;100.00
20424;BME280;10371;49.042;8.002;2022-10-16T00:02:33;99626.22;;;16.16;100.00
20424;BME280;10371;49.042;8.002;2022-10-16T00:03:33;99621.78;;;16.17;100.00
20424;BME280;10371;49.042;8.002;2022-10-16T00:04:33;99624.06;;;16.20;100.00
20424;BME280;10371;49.042;8.002;2022-10-16T00:05:39;99622.44;;;16.19;100.00
20424;BME280;10371;49.042;8.002;2022-10-16T00:06:40;99629.31;;;16.20;100.00
20424;BME280;10371;49.042;8.002;2022-10-16T00:07:40;99621.44;;;16.20;100.00
20424;BME280;10371;49.042;8.002;2022-10-16T00:08:41;99623.25;;;16.19;100.00
20424;BME280;10371;49.042;8.002;2022-10-16T00:09:42;99620.63;;;16.19;100.00
20424;BME280;10371;49.042;8.002;2022-10-16T00:10:42;99616.19;;;16.20;100.00
20424;BME280;10371;49.042;8.002;2022-10-16T00:11:42;99618.81;;;16.20;100.00
20424;BME280;10371;49.042;8.002;2022-10-16T00:12:42;99618.81;;;16.20;100.00
20424;BME280;10371;49.042;8.002;2022-10-16T00:13:44;99627.53;;;16.20;100.00
20424;BME280;10371;49.042;8.002;2022-10-16T00:14:44;99631.97;;;16.20;100.00
20424;BME280;10371;49.042;8.002;2022-10-16T00:15:45;99644.75;;;16.15;100.00
20424;BME280;10371;49.042;8.002;2022-10-16T00:16:46;99644.28;;;16.11;100.00
20424;BME280;10371;49.042;8.002;2022-10-16T00:17:46;99639.84;;;16.12;100.00
20424;BME280;10371;49.042;8.002;2022-10-16T00:18:47;99634.91;;;16.08;100.00
20424;BME280;10371;49.042;8.002;2022-10-16T00:19:47;99642.94;;;16.07;100.00
20424;BME280;10371;49.042;8.002;2022-10-16T00:20:47;99637.88;;;16.05;100.00
20424;BME280;10371;49.042;8.002;2022-10-16T00:21:48;99643.78;;;16.07;100.00
20424;BME280;10371;49.042;8.002;2022-10-16T00:22:48;99650.66;;;16.08;100.00
20424;BME280;10371;49.042;8.002;2022-10-16T00:23:53;99641.97;;;16.08;100.00
20424;BME280;10371;49.042;8.002;2022-10-16T00:24:54;99642.13;;;16.06;100.00
20424;BME280;10371;49.042;8.002;2022-10-16T00:25:55;99640.50;;;16.05;100.00
20424;BME280;10371;49.042;8.002;2022-10-16T00:26:56;99638.84;;;16.04;100.00
20424;BME280;10371;49.042;8.002;2022-10-16T00:27:57;99641.47;;;16.04;100.00
20424;BME280;10371;49.042;8.002;2022-10-16T00:28:57;99635.25;;;16.05;100.00
20424;BME280;10371;49.042;8.002;2022-10-16T00:29:58;99631.63;;;16.06;100.00
20424;BME280;10371;49.042;8.002;2022-10-16T00:30:58;99634.44;;;16.05;100.00
20424;BME280;10371;49.042;8.002;2022-10-16T00:31:58;99630.00;;;16.05;100.00
20424;BME280;10371;49.042;8.002;2022-10-16T00:32:59;99629.19;;;16.05;100.00
20424;BME280;10371;49.042;8.002;2022-10-16T00:33:59;99627.69;;;16.02;100.00
20424;BME280;10371;49.042;8.002;2022-10-16T00:35:00;99628.50;;;16.03;100.00
20424;BME280;10371;49.042;8.002;2022-10-16T00:36:02;99633.91;;;16.01;100.00
20424;BME280;10371;49.042;8.002;2022-10-16T00:37:02;99628.66;;;16.01;100.00
20424;BME280;10371;49.042;8.002;2022-10-16T00:38:03;99632.13;;;16.02;100.00
20424;BME280;10371;49.042;8.002;2022-10-16T00:39:03;99628.66;;;16.01;100.00
20424;BME280;10371;49.042;8.002;2022-10-16T00:40:04;99641.97;;;16.00;100.00
20424;BME280;10371;49.042;8.002;2022-10-16T00:41:05;99635.91;;;15.99;100.00
20424;BME280;10371;49.042;8.002;2022-10-16T00:42:06;99633.28;;;15.99;100.00
20424;BME280;10371;49.042;8.002;2022-10-16T00:43:36;99632.44;;;15.99;100.00
20424;BME280;10371;49.042;8.002;2022-10-16T00:45:47;99642.44;;;15.95;100.00
20424;BME280;10371;49.042;8.002;2022-10-16T00:46:47;99640.00;;;15.94;100.00
20424;BME280;10371;49.042;8.002;2022-10-16T00:47:48;99644.41;;;15.93;100.00
20424;BME280;10371;49.042;8.002;2022-10-16T00:48:59;99639.16;;;15.93;100.00
20424;BME280;10371;49.042;8.002;2022-10-16T00:50:32;99643.44;;;15.94;100.00
20424;BME280;10371;49.042;8.002;2022-10-16T00:51:41;99635.56;;;15.94;100.00
20424;BME280;10371;49.042;8.002;2022-10-16T00:52:45;99637.53;;;15.92;100.00
20424;BME280;10371;49.042;8.002;2022-10-16T00:53:46;99638.66;;;15.90;100.00
20424;BME280;10371;49.042;8.002;2022-10-16T00:54:47;99646.53;;;15.90;100.00
20424;BME280;10371;49.042;8.002;2022-10-16T00:55:50;99648.34;;;15.89;100.00
20424;BME280;10371;49.042;8.002;2022-10-16T00:56:50;99649.16;;;15.90;100.00
20424;BME280;10371;49.042;8.002;2022-10-16T00:57:51;99639.16;;;15.93;100.00
20424;BME280;10371;49.042;8.002;2022-10-16T00:58:51;99646.06;;;15.94;100.00
20424;BME280;10371;49.042;8.002;2022-10-16T00:59:53;99648.69;;;15.94;100.00
20424;BME280;10371;49.042;8.002;2022-10-16T01:00:53;99649.31;;;15.96;100.00
20424;BME280;10371;49.042;8.002;2022-10-16T01:01:54;99649.19;;;15.98;100.00
20424;BME280;10371;49.042;8.002;2022-10-16T01:03:00;99661.50;;;15.97;100.00
20424;BME280;10371;49.042;8.002;2022-10-16T01:04:00;99652.63;;;15.98;100.00
20424;BME280;10371;49.042;8.002;2022-10-16T01:05:02;99650.00;;;15.98;100.00
20424;BME280;10371;49.042;8.002;2022-10-16T01:07:43;99652.28;;;16.01;100.00
20424;BME280;10371;49.042;8.002;2022-10-16T01:08:57;99649.03;;;15.99;100.00
20424;BME280;10371;49.042;8.002;2022-10-16T01:11:35;99652.16;;;16.03;100.00
20424;BME280;10371;49.042;8.002;2022-10-16T01:12:43;99654.59;;;16.04;100.00
20424;BME280;10371;49.042;8.002;2022-10-16T01:13:50;99655.59;;;16.03;100.00
20424;BME280;10371;49.042;8.002;2022-10-16T01:14:59;99639.81;;;16.03;100.00
20424;BME280;10371;49.042;8.002;2022-10-16T01:16:17;99641.97;;;16.00;100.00
20424;BME280;10371;49.042;8.002;2022-10-16T01:18:37;99647.03;;;16.01;100.00
20424;BME280;10371;49.042;8.002;2022-10-16T01:21:16;99648.69;;;16.02;100.00
20424;BME280;10371;49.042;8.002;2022-10-16T01:22:21;99648.84;;;16.01;100.00
20424;BME280;10371;49.042;8.002;2022-10-16T01:24:49;99633.44;;;15.98;100.00
20424;BME280;10371;49.042;8.002;2022-10-16T01:26:14;99635.06;;;15.99;100.00
20424;BME280;10371;49.042;8.002;2022-10-16T01:28:28;99641.44;;;15.96;100.00
20424;BME280;10371;49.042;8.002;2022-10-16T01:29:39;99638.00;;;15.96;100.00
20424;BME280;10371;49.042;8.002;2022-10-16T01:30:43;99639.81;;;15.95;100.00
20424;BME280;10371;49.042;8.002;2022-10-16T01:31:59;99638.19;;;15.94;100.00
20424;BME280;10371;49.042;8.002;2022-10-16T01:33:06;99638.53;;;15.99;100.00
20424;BME280;10371;49.042;8.002;2022-10-16T01:34:14;99643.78;;;15.99;100.00
20424;BME280;10371;49.042;8.002;2022-10-16T01:35:32;99643.94;;;15.98;100.00
20424;BME280;10371;49.042;8.002;2022-10-16T01:36:46;99645.06;;;15.95;100.00
20424;BME280;10371;49.042;8.002;2022-10-16T01:39:06;99655.75;;;15.94;100.00
20424;BME280;10371;49.042;8.002;2022-10-16T01:40:12;99652.94;;;15.95;100.00
20424;BME280;10371;49.042;8.002;2022-10-16T01:41:24;99644.91;;;15.97;100.00
20424;BME280;10371;49.042;8.002;2022-10-16T01:42:32;99646.69;;;15.96;100.00
20424;BME280;10371;49.042;8.002;2022-10-16T01:43:38;99645.75;;;15.97;100.00
20424;BME280;10371;49.042;8.002;2022-10-16T01:44:41;99647.38;;;15.98;100.00
20424;BME280;10371;49.042;8.002;2022-10-16T01:45:44;99645.56;;;15.99;100.00
20424;BME280;10371;49.042;8.002;2022-10-16T01:46:48;99636.19;;;15.96;100.00
20424;BME280;10371;49.042;8.002;2022-10-16T01:47:50;99636.88;;;15.98;100.00
20424;BME280;10371;49.042;8.002;2022-10-16T01:48:53;99636.88;;;15.98;100.00
20424;BME280;10371;49.042;8.002;2022-10-16T01:49:55;99640.50;;;15.97;100.00
20424;BME280;10371;49.042;8.002;2022-10-16T01:51:01;99637.88;;;15.97;100.00
20424;BME280;10371;49.042;8.002;2022-10-16T01:52:06;99637.03;;;15.97;100.00
20424;BME280;10371;49.042;8.002;2022-10-16T01:53:11;99638.81;;;15.96;100.00
20424;BME280;10371;49.042;8.002;2022-10-16T01:54:13;99639.81;;;15.95;100.00
20424;BME280;10371;49.042;8.002;2022-10-16T01:55:22;99644.25;;;15.95;100.00
20424;BME280;10371;49.042;8.002;2022-10-16T01:56:25;99648.38;;;15.97;100.00
20424;BME280;10371;49.042;8.002;2022-10-16T01:57:26;99641.44;;;15.96;100.00
20424;BME280;10371;49.042;8.002;2022-10-16T01:58:30;99649.03;;;15.99;100.00
20424;BME280;10371;49.042;8.002;2022-10-16T01:59:38;99648.38;;;15.97;100.00
20424;BME280;10371;49.042;8.002;2022-10-16T02:00:43;99664.94;;;15.98;100.00
20424;BME280;10371;49.042;8.002;2022-10-16T02:01:47;99665.75;;;15.98;100.00
20424;BME280;10371;49.042;8.002;2022-10-16T02:02:53;99660.81;;;15.95;100.00
20424;BME280;10371;49.042;8.002;2022-10-16T02:03:57;99667.72;;;15.96;100.00
20424;BME280;10371;49.042;8.002;2022-10-16T02:05:06;99662.47;;;15.96;100.00
20424;BME280;10371;49.042;8.002;2022-10-16T02:06:11;99663.31;;;15.97;100.00
20424;BME280;10371;49.042;8.002;2022-10-16T02:07:12;99664.13;;;15.97;100.00
20424;BME280;10371;49.042;8.002;2022-10-16T02:08:12;99666.75;;;15.97;100.00
20424;BME280;10371;49.042;8.002;2022-10-16T02:09:13;99661.31;;;15.99;100.00
20424;BME280;10371;49.042;8.002;2022-10-16T02:10:17;99659.53;;;15.99;100.00
20424;BME280;10371;49.042;8.002;2022-10-16T02:11:18;99654.91;;;16.01;100.00
20424;BME280;10371;49.042;8.002;2022-10-16T02:12:25;99657.41;;;16.03;100.00
20424;BME280;10371;49.042;8.002;2022-10-16T02:13:31;99659.03;;;16.04;100.00
20424;BME280;10371;49.042;8.002;2022-10-16T02:14:33;99654.59;;;16.04;100.00
20424;BME280;10371;49.042;8.002;2022-10-16T02:15:33;99659.84;;;16.04;100.00
20424;BME280;10371;49.042;8.002;2022-10-16T02:16:36;99656.41;;;16.04;100.00
20424;BME280;10371;49.042;8.002;2022-10-16T02:17:37;99661.66;;;16.04;100.00
20424;BME280;10371;49.042;8.002;2022-10-16T02:18:38;99660.69;;;16.05;100.00
20424;BME280;10371;49.042;8.002;2022-10-16T02:19:39;99662.31;;;16.06;100.00
20424;BME280;10371;49.042;8.002;2022-10-16T02:20:55;99657.06;;;16.06;100.00
20424;BME280;10371;49.042;8.002;2022-10-16T02:22:00;99657.06;;;16.06;100.00
20424;BME280;10371;49.042;8.002;2022-10-16T02:23:01;99655.25;;;16.06;100.00
20424;BME280;10371;49.042;8.002;2022-10-16T02:24:09;99653.78;;;16.04;100.00
20424;BME280;10371;49.042;8.002;2022-10-16T02:25:30;99652.16;;;16.03;100.00
20424;BME280;10371;49.042;8.002;2022-10-16T02:26:37;99664.13;;;16.05;100.00
20424;BME280;10371;49.042;8.002;2022-10-16T02:27:57;99657.22;;;16.04;100.00
20424;BME280;10371;49.042;8.002;2022-10-16T02:29:02;99659.22;;;16.02;100.00
20424;BME280;10371;49.042;8.002;2022-10-16T02:30:09;99663.94;;;16.07;100.00
20424;BME280;10371;49.042;8.002;2022-10-16T02:31:13;99664.94;;;16.06;100.00
20424;BME280;10371;49.042;8.002;2022-10-16T02:32:23;99656.25;;;16.05;100.00
20424;BME280;10371;49.042;8.002;2022-10-16T02:33:25;99658.69;;;16.07;100.00
20424;BME280;10371;49.042;8.002;2022-10-16T02:34:28;99656.91;;;16.07;100.00
20424;BME280;10371;49.042;8.002;2022-10-16T02:35:31;99658.88;;;16.05;100.00
20424;BME280;10371;49.042;8.002;2022-10-16T02:36:34;99664.63;;;16.09;100.00
20424;BME280;10371;49.042;8.002;2022-10-16T02:37:36;99663.13;;;16.06;100.00
20424;BME280;10371;49.042;8.002;2022-10-16T02:38:39;99666.56;;;16.07;100.00
20424;BME280;10371;49.042;8.002;2022-10-16T02:39:41;99658.06;;;16.05;100.00
20424;BME280;10371;49.042;8.002;2022-10-16T02:40:42;99662.16;;;16.07;100.00
20424;BME280;10371;49.042;8.002;2022-10-16T02:41:42;99663.78;;;16.08;100.00
20424;BME280;10371;49.042;8.002;2022-10-16T02:42:43;99662.16;;;16.07;100.00
20424;BME280;10371;49.042;8.002;2022-10-16T02:43:44;99667.25;;;16.09;100.00
20424;BME280;10371;49.042;8.002;2022-10-16T02:44:44;99660.84;;;16.12;100.00
20424;BME280;10371;49.042;8.002;2022-10-16T02:45:44;99661.66;;;16.12;100.00
20424;BME280;10371;49.042;8.002;2022-10-16T02:46:44;99660.84;;;16.12;100.00
20424;BME280;10371;49.042;8.002;2022-10-16T02:47:45;99667.72;;;16.13;100.00
20424;BME280;10371;49.042;8.002;2022-10-16T02:48:45;99670.34;;;16.13;100.00
20424;BME280;10371;49.042;8.002;2022-10-16T02:49:45;99674.66;;;16.14;100.00
20424;BME280;10371;49.042;8.002;2022-10-16T02:50:46;99666.09;;;16.12;100.00
20424;BME280;10371;49.042;8.002;2022-10-16T02:51:46;99668.25;;;16.16;100.00
20424;BME280;10371;49.042;8.002;2022-10-16T02:52:46;99669.06;;;16.17;100.00
20424;BME280;10371;49.042;8.002;2022-10-16T02:53:46;99679.22;;;16.20;100.00
20424;BME280;10371;49.042;8.002;2022-10-16T02:54:47;99674.97;;;16.19;100.00
20424;BME280;10371;49.042;8.002;2022-10-16T02:55:47;99678.25;;;16.21;100.00
20424;BME280;10371;49.042;8.002;2022-10-16T02:56:48;99682.53;;;16.22;100.00
20424;BME280;10371;49.042;8.002;2022-10-16T02:57:48;99678.75;;;16.24;100.00
20424;BME280;10371;49.042;8.002;2022-10-16T02:58:48;99677.91;;;16.24;100.00
20424;BME280;10371;49.042;8.002;2022-10-16T02:59:48;99682.19;;;16.25;100.00
20424;BME280;10371;49.042;8.002;2022-10-16T03:00:49;99679.56;;;16.25;100.00
20424;BME280;10371;49.042;8.002;2022-10-16T03:01:49;99681.88;;;16.28;100.00
20424;BME280;10371;49.042;8.002;2022-10-16T03:02:50;99678.25;;;16.29;100.00
20424;BME280;10371;49.042;8.002;2022-10-16T03:03:50;99675.63;;;16.29;100.00
20424;BME280;10371;49.042;8.002;2022-10-16T03:04:50;99676.63;;;16.28;100.00
20424;BME280;10371;49.042;8.002;2022-10-16T03:05:51;99671.50;;;16.26;100.00
20424;BME280;10371;49.042;8.002;2022-10-16T03:06:51;99675.78;;;16.27;100.00
20424;BME280;10371;49.042;8.002;2022-10-16T03:07:51;99663.63;;;16.26;100.00
20424;BME280;10371;49.042;8.002;2022-10-16T03:08:52;99670.38;;;16.29;100.00
20424;BME280;10371;49.042;8.002;2022-10-16T03:09:52;99668.56;;;16.29;100.00
20424;BME280;10371;49.042;8.002;2022-10-16T03:10:54;99664.78;;;16.32;100.00
20424;BME280;10371;49.042;8.002;2022-10-16T03:11:55;99662.16;;;16.32;100.00
20424;BME280;10371;49.042;8.002;2022-10-16T03:12:55;99663.81;;;16.33;100.00
20424;BME280;10371;49.042;8.002;2022-10-16T03:13:55;99663.97;;;16.31;100.00
20424;BME280;10371;49.042;8.002;2022-10-16T03:14:56;99658.22;;;16.28;100.00
20424;BME280;10371;49.042;8.002;2022-10-16T03:15:56;99669.88;;;16.25;100.00
20424;BME280;10371;49.042;8.002;2022-10-16T03:16:57;99666.44;;;16.25;100.00
20424;BME280;10371;49.042;8.002;2022-10-16T03:17:58;99665.44;;;16.26;100.00
20424;BME280;10371;49.042;8.002;2022-10-16T03:18:58;99673.97;;;16.28;100.00
20424;BME280;10371;49.042;8.002;2022-10-16T03:19:59;99669.41;;;16.30;100.00
20424;BME280;10371;49.042;8.002;2022-10-16T03:20:59;99674.66;;;16.30;100.00
20424;BME280;10371;49.042;8.002;2022-10-16T03:21:59;99668.41;;;16.31;100.00
20424;BME280;10371;49.042;8.002;2022-10-16T03:22:59;99668.41;;;16.31;100.00
20424;BME280;10371;49.042;8.002;2022-10-16T03:24:00;99673.50;;;16.33;100.00
20424;BME280;10371;49.042;8.002;2022-10-16T03:25:00;99676.28;;;16.31;100.00
20424;BME280;10371;49.042;8.002;2022-10-16T03:26:00;99671.03;;;16.31;100.00
20424;BME280;10371;49.042;8.002;2022-10-16T03:27:01;99672.66;;;16.32;100.00
20424;BME280;10371;49.042;8.002;2022-10-16T03:28:02;99678.91;;;16.31;100.00
20424;BME280;10371;49.042;8.002;2022-10-16T03:29:03;99681.38;;;16.33;100.00
20424;BME280;10371;49.042;8.002;2022-10-16T03:30:04;99671.03;;;16.31;100.00
20424;BME280;10371;49.042;8.002;2022-10-16T03:31:04;99673.66;;;16.31;100.00
20424;BME280;10371;49.042;8.002;2022-10-16T03:32:05;99670.88;;;16.33;100.00
20424;BME280;10371;49.042;8.002;2022-10-16T03:33:05;99675.13;;;16.34;100.00
20424;BME280;10371;49.042;8.002;2022-10-16T03:34:06;99677.09;;;16.31;100.00
20424;BME280;10371;49.042;8.002;2022-10-16T03:35:06;99678.09;;;16.30;100.00
20424;BME280;10371;49.042;8.002;2022-10-16T03:36:06;99676.63;;;16.28;100.00
20424;BME280;10371;49.042;8.002;2022-10-16T03:37:07;99679.25;;;16.28;100.00
20424;BME280;10371;49.042;8.002;2022-10-16T03:38:07;99670.88;;;16.24;100.00
20424;BME280;10371;49.042;8.002;2022-10-16T03:39:07;99670.88;;;16.24;100.00
20424;BME280;10371;49.042;8.002;2022-10-16T03:40:08;99675.28;;;16.24;100.00
20424;BME280;10371;49.042;8.002;2022-10-16T03:41:08;99669.72;;;16.27;100.00
20424;BME280;10371;49.042;8.002;2022-10-16T03:42:09;99668.88;;;16.26;100.00
20424;BME280;10371;49.042;8.002;2022-10-16T03:43:09;99668.56;;;16.29;100.00
20424;BME280;10371;49.042;8.002;2022-10-16T03:44:09;99667.41;;;16.32;100.00
20424;BME280;10371;49.042;8.002;2022-10-16T03:45:11;99669.06;;;16.33;100.00
20424;BME280;10371;49.042;8.002;2022-10-16T03:46:11;99671.69;;;16.33;100.00
20424;BME280;10371;49.042;8.002;2022-10-16T03:47:12;99675.81;;;16.36;100.00
20424;BME280;10371;49.042;8.002;2022-10-16T03:48:12;99671.34;;;16.36;100.00
20424;BME280;10371;49.042;8.002;2022-10-16T03:49:12;99675.81;;;16.36;100.00
20424;BME280;10371;49.042;8.002;2022-10-16T03:50:12;99673.97;;;16.36;100.00
20424;BME280;10371;49.042;8.002;2022-10-16T03:51:13;99673.97;;;16.36;100.00
20424;BME280;10371;49.042;8.002;2022-10-16T03:52:13;99671.84;;;16.40;100.00
20424;BME280;10371;49.042;8.002;2022-10-16T03:53:14;99673.31;;;16.42;100.00
20424;BME280;10371;49.042;8.002;2022-10-16T03:54:14;99671.69;;;16.41;100.00
20424;BME280;10371;49.042;8.002;2022-10-16T03:55:15;99678.56;;;16.42;100.00
20424;BME280;10371;49.042;8.002;2022-10-16T03:56:15;99674.66;;;16.38;100.00
20424;BME280;10371;49.042;8.002;2022-10-16T03:57:15;99677.09;;;16.40;100.00
20424;BME280;10371;49.042;8.002;2022-10-16T03:58:16;99675.28;;;16.40;100.00
20424;BME280;10371;49.042;8.002;2022-10-16T03:59:16;99669.06;;;16.41;100.00
20424;BME280;10371;49.042;8.002;2022-10-16T04:00:17;99678.09;;;16.39;100.00
20424;BME280;10371;49.042;8.002;2022-10-16T04:01:17;99676.28;;;16.39;100.00
20424;BME280;10371;49.042;8.002;2022-10-16T04:02:17;99679.56;;;16.41;100.00
20424;BME280;10371;49.042;8.002;2022-10-16T04:03:18;99669.88;;;16.42;100.00
20424;BME280;10371;49.042;8.002;2022-10-16T04:04:19;99674.31;;;16.41;100.00
20424;BME280;10371;49.042;8.002;2022-10-16T04:05:19;99677.09;;;16.40;100.00
20424;BME280;10371;49.042;8.002;2022-10-16T04:06:19;99678.56;;;16.42;100.00
20424;BME280;10371;49.042;8.002;2022-10-16T04:07:19;99684.66;;;16.43;100.00
20424;BME280;10371;49.042;8.002;2022-10-16T04:08:20;99681.19;;;16.42;100.00
20424;BME280;10371;49.042;8.002;2022-10-16T04:09:21;99682.19;;;16.41;100.00
20424;BME280;10371;49.042;8.002;2022-10-16T04:10:21;99673.31;;;16.42;100.00
20424;BME280;10371;49.042;8.002;2022-10-16T04:11:21;99683.84;;;16.42;100.00
20424;BME280;10371;49.042;8.002;2022-10-16T04:12:22;99679.38;;;16.43;100.00
20424;BME280;10371;49.042;8.002;2022-10-16T04:13:22;99682.84;;;16.43;100.00
20424;BME280;10371;49.042;8.002;2022-10-16T04:14:22;99694.00;;;16.45;100.00
20424;BME280;10371;49.042;8.002;2022-10-16T04:15:23;99695.81;;;16.45;100.00
20424;BME280;10371;49.042;8.002;2022-10-16T04:16:23;99687.13;;;16.44;100.00
20424;BME280;10371;49.042;8.002;2022-10-16T04:17:24;99689.09;;;16.42;100.00
20424;BME280;10371;49.042;8.002;2022-10-16T04:18:24;99685.16;;;16.38;100.00
20424;BME280;10371;49.042;8.002;2022-10-16T04:19:27;99690.41;;;16.38;100.00
20424;BME280;10371;49.042;8.002;2022-10-16T04:20:27;99681.69;;;16.38;100.00
20424;BME280;10371;49.042;8.002;2022-10-16T04:21:27;99686.78;;;16.39;100.00
20424;BME280;10371;49.042;8.002;2022-10-16T04:22:28;99690.22;;;16.40;100.00
20424;BME280;10371;49.042;8.002;2022-10-16T04:23:28;99678.09;;;16.39;100.00
20424;BME280;10371;49.042;8.002;2022-10-16T04:24:28;99690.09;;;16.41;100.00
20424;BME280;10371;49.042;8.002;2022-10-16T04:25:29;99691.72;;;16.42;100.00
20424;BME280;10371;49.042;8.002;2022-10-16T04:26:30;99694.34;;;16.42;100.00
20424;BME280;10371;49.042;8.002;2022-10-16T04:27:30;99692.38;;;16.44;100.00
20424;BME280;10371;49.042;8.002;2022-10-16T04:28:31;99686.94;;;16.46;100.00
20424;BME280;10371;49.042;8.002;2022-10-16T04:29:31;99697.31;;;16.47;100.00
20424;BME280;10371;49.042;8.002;2022-10-16T04:30:31;99692.03;;;16.47;100.00
20424;BME280;10371;49.042;8.002;2022-10-16T04:31:33;99694.81;;;16.46;100.00
20424;BME280;10371;49.042;8.002;2022-10-16T04:32:34;99696.47;;;16.47;100.00
20424;BME280;10371;49.042;8.002;2022-10-16T04:33:34;99691.22;;;16.47;100.00
20424;BME280;10371;49.042;8.002;2022-10-16T04:34:35;99697.44;;;16.46;100.00
20424;BME280;10371;49.042;8.002;2022-10-16T04:35:35;99701.22;;;16.43;100.00
20424;BME280;10371;49.042;8.002;2022-10-16T04:36:36;99701.22;;;16.43;100.00
20424;BME280;10371;49.042;8.002;2022-10-16T04:37:36;99699.59;;;16.42;100.00
20424;BME280;10371;49.042;8.002;2022-10-16T04:38:36;99698.13;;;16.40;100.00
20424;BME280;10371;49.042;8.002;2022-10-16T04:39:37;99701.56;;;16.40;100.00
20424;BME280;10371;49.042;8.002;2022-10-16T04:40:37;99703.38;;;16.40;100.00
20424;BME280;10371;49.042;8.002;2022-10-16T04:41:38;99707.00;;;16.39;100.00
20424;BME280;10371;49.042;8.002;2022-10-16T04:42:38;99710.09;;;16.42;100.00
20424;BME280;10371;49.042;8.002;2022-10-16T04:43:38;99712.59;;;16.44;100.00
20424;BME280;10371;49.042;8.002;2022-10-16T04:44:39;99715.38;;;16.42;100.00
20424;BME280;10371;49.042;8.002;2022-10-16T04:45:39;99716.34;;;16.41;100.00
20424;BME280;10371;49.042;8.002;2022-10-16T04:46:39;99713.72;;;16.41;100.00
20424;BME280;10371;49.042;8.002;2022-10-16T04:47:40;99715.38;;;16.42;100.00
20424;BME280;10371;49.042;8.002;2022-10-16T04:48:40;99713.72;;;16.41;100.00
20424;BME280;10371;49.042;8.002;2022-10-16T04:49:40;99715.38;;;16.42;100.00
20424;BME280;10371;49.042;8.002;2022-10-16T04:50:41;99712.41;;;16.45;100.00
20424;BME280;10371;49.042;8.002;2022-10-16T04:51:41;99714.38;;;16.43;100.00
20424;BME280;10371;49.042;8.002;2022-10-16T04:52:41;99709.13;;;16.43;100.00
20424;BME280;10371;49.042;8.002;2022-10-16T04:53:42;99713.72;;;16.41;100.00
20424;BME280;10371;49.042;8.002;2022-10-16T04:54:42;99719.31;;;16.38;100.00
20424;BME280;10371;49.042;8.002;2022-10-16T04:55:45;99719.13;;;16.40;100.00
20424;BME280;10371;49.042;8.002;2022-10-16T04:56:45;99707.63;;;16.41;100.00
20424;BME280;10371;49.042;8.002;2022-10-16T04:57:50;99710.09;;;16.42;100.00
20424;BME280;10371;49.042;8.002;2022-10-16T04:58:51;99710.09;;;16.42;100.00
20424;BME280;10371;49.042;8.002;2022-10-16T04:59:51;99709.63;;;16.39;100.00
20424;BME280;10371;49.042;8.002;2022-10-16T05:00:51;99715.22;;;16.44;100.00
20424;BME280;10371;49.042;8.002;2022-10-16T05:01:52;99712.88;;;16.41;100.00
20424;BME280;10371;49.042;8.002;2022-10-16T05:02:52;99716.50;;;16.40;100.00
20424;BME280;10371;49.042;8.002;2022-10-16T05:03:53;99725.53;;;16.37;100.00
20424;BME280;10371;49.042;8.002;2022-10-16T05:04:53;99726.03;;;16.33;100.00
20424;BME280;10371;49.042;8.002;2022-10-16T05:05:53;99725.53;;;16.29;100.00
20424;BME280;10371;49.042;8.002;2022-10-16T05:06:54;99733.41;;;16.29;100.00
20424;BME280;10371;49.042;8.002;2022-10-16T05:07:54;99733.41;;;16.29;100.00
20424;BME280;10371;49.042;8.002;2022-10-16T05:08:54;99733.25;;;16.30;100.00
20424;BME280;10371;49.042;8.002;2022-10-16T05:09:55;99737.53;;;16.31;100.00
20424;BME280;10371;49.042;8.002;2022-10-16T05:10:55;99751.47;;;16.32;100.00
20424;BME280;10371;49.042;8.002;2022-10-16T05:11:56;99735.72;;;16.32;100.00
20424;BME280;10371;49.042;8.002;2022-10-16T05:12:56;99732.75;;;16.35;100.00
20424;BME280;10371;49.042;8.002;2022-10-16T05:13:56;99725.72;;;16.36;100.00
20424;BME280;10371;49.042;8.002;2022-10-16T05:14:56;99730.31;;;16.34;100.00
20424;BME280;10371;49.042;8.002;2022-10-16T05:15:58;99725.38;;;16.30;100.00
20424;BME280;10371;49.042;8.002;2022-10-16T05:16:59;99723.72;;;16.29;100.00
20424;BME280;10371;49.042;8.002;2022-10-16T05:18:00;99728.34;;;16.27;100.00
20424;BME280;10371;49.042;8.002;2022-10-16T05:19:00;99730.28;;;16.25;100.00
20424;BME280;10371;49.042;8.002;2022-10-16T05:20:01;99727.00;;;16.23;100.00
20424;BME280;10371;49.042;8.002;2022-10-16T05:21:02;99716.81;;;16.20;100.00
20424;BME280;10371;49.042;8.002;2022-10-16T05:22:02;99722.06;;;16.20;100.00
20424;BME280;10371;49.042;8.002;2022-10-16T05:23:03;99726.03;;;16.16;100.00
20424;BME280;10371;49.042;8.002;2022-10-16T05:24:03;99725.84;;;16.18;100.00
20424;BME280;10371;49.042;8.002;2022-10-16T05:25:04;99721.59;;;16.17;100.00
20424;BME280;10371;49.042;8.002;2022-10-16T05:26:04;99721.59;;;16.17;100.00
20424;BME280;10371;49.042;8.002;2022-10-16T05:27:05;99718.28;;;16.15;100.00
20424;BME280;10371;49.042;8.002;2022-10-16T05:28:05;99719.09;;;16.15;100.00
20424;BME280;10371;49.042;8.002;2022-10-16T05:29:05;99718.47;;;16.13;100.00
20424;BME280;10371;49.042;8.002;2022-10-16T05:30:06;99716.00;;;16.12;100.00
20424;BME280;10371;49.042;8.002;2022-10-16T05:31:08;99736.34;;;16.09;100.00
20424;BME280;10371;49.042;8.002;2022-10-16T05:32:09;99731.91;;;16.10;100.00
20424;BME280;10371;49.042;8.002;2022-10-16T05:33:09;99732.75;;;16.11;100.00
20424;BME280;10371;49.042;8.002;2022-10-16T05:34:09;99724.03;;;16.10;100.00
20424;BME280;10371;49.042;8.002;2022-10-16T05:35:10;99729.78;;;16.14;100.00
20424;BME280;10371;49.042;8.002;2022-10-16T05:36:10;99729.94;;;16.12;100.00